KJAX/JAX METAR and TAF weather

Enter ICAO airport designator
Station Type Date Time Source
KJAX METAR 2021/07/26 16:56 UTC NOAA

KJAX 261656Z 31006KT 10SM -RA SCT017 BKN046 BKN100 BKN250 28/26 A2991 RMK AO2 LTG DSNT SE RAE05B51 SLP130 P0000 T02780256


Station Type Date Time Source
KJAX Decoded METAR 2021/07/26 16:56 UTC NOAA

JACKSONVILLE INTERNATIONAL, FL, United States (KJAX) 30-30N 81-42W 7M
Jul 26, 2021 - 12:56 PM EDT / 2021.07.26 1656 UTC
Wind: from the NW (310 degrees) at 7 MPH (6 KT):0
Visibility: 10 mile(s):0
Sky conditions: mostly cloudy
Weather: light rain; Lightning observed
Precipitation last hour: A trace
Temperature: 82.0 F (27.8 C)
Dew Point: 78.1 F (25.6 C)
Relative Humidity: 87%
Pressure (altimeter): 29.91 in. Hg (1012 hPa)
ob: KJAX 261656Z 31006KT 10SM -RA SCT017 BKN046 BKN100 BKN250 28/26 A2991 RMK AO2 LTG DSNT SE RAE05B51 SLP130 P0000 T02780256
cycle: 17

Station Type Date Time Source
KJAX TAF 2021/07/26 12:42 UTC NOAA

TAF KJAX 261140Z 2612/2712 VRB03KT P6SM VCSH BKN006 OVC020
FM261500 33006KT 6SM SHRA BR VCTS SCT015CB OVC020
FM262000 04007KT 6SM SHRA BR VCTS SCT025CB OVC050 PROB30 2621/2624 4SM TSRA BR BKN025CB
FM270000 14004KT P6SM VCSH SCT015 OVC060
FM270500 00000KT P6SM SCT015 BKN100

Example: see airport list